메인 페이지
METAR-TAF:

METAR-TAF

공항 :

코토카 국제공항

아크라, 가나

위도: 05-36N, 경도: 000-10W, 고도: 68m

현재 날씨관측

예보는 13 시간 26분 전, 06:00시(UTC)에 발표되었습니다.
5kt
온도 25°C
습도 100%
기압 1011 hPa
시정 10km 이상
1500m 미만 상공 구름 및 적란운 없음

METAR: DGAA 200600Z 28005KT CAVOK 25/25 Q1011 NOSIG

시각: 19:26 (19:26 UTC)

예보

예보는 14 시간 26분 전, 05:00시(UTC)에 발표되었습니다.
예보 대상 시간: 20일 06시부터 21일 12시까지 (UTC)
10kt
시정 10km 이상
고도 1000ft 상공 구름 많음
전환 중
20일 10시부터 20일 12시까지 (UTC)
15kt
고도 2000ft 상공 구름 보통
확률 30% :
일시적
20일 16시부터 20일 20시까지 (UTC)
시정: 6000m
고도 1000ft 상공 구름 많음

TAF: DGAA 200500Z 2006/2112 26010KT 9999 BKN010 BECMG 2010/2012 19015KT SCT020 PROB30 TEMPO 2016/2020 6000 RA BKN010

4,000개 이상의 공항 관측 자료 및 예보 (METAR 및 TAF 보고).

지도상에서 검색 가능한 기상관측소가 노란 점과 빨간 점으로 표시되어 있습니다.

기상관측소 명을 보려면 표시 위로 마우스를 이동하세요.

날씨 관측과 예보를 보려면 클릭하세요.

지도 변경 : 확대하려면 엑스 표시가 있는 녹색 버튼, 축소하려면 빼기 표시가 있는 녹색 버튼, 다음 페이지의 지도를 보려면 녹색 화살표를 클릭하세요.


METAR-TAF: